sensor_id;sensor_type;location;lat;lon;timestamp;P1;durP1;ratioP1;P2;durP2;ratioP2
16880;SDS011;8557;52.068;5.198;2022-07-06T00:01:18;3.50;;;1.23;;
16880;SDS011;8557;52.068;5.198;2022-07-06T00:03:45;5.60;;;1.70;;
16880;SDS011;8557;52.068;5.198;2022-07-06T00:06:12;4.70;;;1.65;;
16880;SDS011;8557;52.068;5.198;2022-07-06T00:08:39;4.85;;;1.75;;
16880;SDS011;8557;52.068;5.198;2022-07-06T00:11:06;1.85;;;1.38;;
16880;SDS011;8557;52.068;5.198;2022-07-06T00:13:34;2.38;;;1.35;;
16880;SDS011;8557;52.068;5.198;2022-07-06T00:16:01;3.38;;;1.60;;
16880;SDS011;8557;52.068;5.198;2022-07-06T00:18:28;5.00;;;1.75;;
16880;SDS011;8557;52.068;5.198;2022-07-06T00:20:55;2.78;;;1.40;;
16880;SDS011;8557;52.068;5.198;2022-07-06T00:23:22;2.10;;;1.40;;
16880;SDS011;8557;52.068;5.198;2022-07-06T00:25:48;2.72;;;1.55;;
16880;SDS011;8557;52.068;5.198;2022-07-06T00:28:15;2.03;;;1.60;;
16880;SDS011;8557;52.068;5.198;2022-07-06T00:30:44;4.35;;;1.80;;
16880;SDS011;8557;52.068;5.198;2022-07-06T00:33:10;5.20;;;1.50;;
16880;SDS011;8557;52.068;5.198;2022-07-06T00:35:37;3.70;;;1.98;;
16880;SDS011;8557;52.068;5.198;2022-07-06T00:38:04;4.93;;;1.80;;
16880;SDS011;8557;52.068;5.198;2022-07-06T00:40:31;4.65;;;1.75;;
16880;SDS011;8557;52.068;5.198;2022-07-06T00:42:57;4.63;;;1.63;;
16880;SDS011;8557;52.068;5.198;2022-07-06T00:45:24;1.90;;;1.40;;
16880;SDS011;8557;52.068;5.198;2022-07-06T00:47:52;2.47;;;1.60;;
16880;SDS011;8557;52.068;5.198;2022-07-06T00:50:19;5.30;;;1.75;;
16880;SDS011;8557;52.068;5.198;2022-07-06T00:52:47;3.47;;;1.80;;
16880;SDS011;8557;52.068;5.198;2022-07-06T00:55:16;4.32;;;1.70;;
16880;SDS011;8557;52.068;5.198;2022-07-06T00:57:44;3.50;;;1.70;;
16880;SDS011;8557;52.068;5.198;2022-07-06T01:00:13;4.30;;;1.70;;
16880;SDS011;8557;52.068;5.198;2022-07-06T01:02:42;4.75;;;1.80;;
16880;SDS011;8557;52.068;5.198;2022-07-06T01:05:11;3.60;;;1.80;;
16880;SDS011;8557;52.068;5.198;2022-07-06T01:07:39;2.65;;;1.70;;
16880;SDS011;8557;52.068;5.198;2022-07-06T01:10:09;3.90;;;1.70;;
16880;SDS011;8557;52.068;5.198;2022-07-06T01:12:38;3.45;;;1.67;;
16880;SDS011;8557;52.068;5.198;2022-07-06T01:15:07;3.20;;;1.65;;
16880;SDS011;8557;52.068;5.198;2022-07-06T01:17:37;5.00;;;1.88;;
16880;SDS011;8557;52.068;5.198;2022-07-06T01:20:08;3.95;;;1.92;;
16880;SDS011;8557;52.068;5.198;2022-07-06T01:22:36;3.50;;;1.50;;
16880;SDS011;8557;52.068;5.198;2022-07-06T01:25:03;4.03;;;1.63;;
16880;SDS011;8557;52.068;5.198;2022-07-06T01:27:30;2.53;;;1.75;;
16880;SDS011;8557;52.068;5.198;2022-07-06T01:29:59;4.35;;;1.55;;
16880;SDS011;8557;52.068;5.198;2022-07-06T01:32:26;3.60;;;1.73;;
16880;SDS011;8557;52.068;5.198;2022-07-06T01:34:53;2.45;;;1.50;;
16880;SDS011;8557;52.068;5.198;2022-07-06T01:37:21;5.55;;;1.88;;
16880;SDS011;8557;52.068;5.198;2022-07-06T01:39:48;3.75;;;1.73;;
16880;SDS011;8557;52.068;5.198;2022-07-06T01:42:14;2.22;;;1.85;;
16880;SDS011;8557;52.068;5.198;2022-07-06T01:44:42;3.25;;;1.80;;
16880;SDS011;8557;52.068;5.198;2022-07-06T01:47:09;4.60;;;1.70;;
16880;SDS011;8557;52.068;5.198;2022-07-06T01:49:36;1.55;;;1.42;;
16880;SDS011;8557;52.068;5.198;2022-07-06T01:52:02;3.60;;;1.70;;
16880;SDS011;8557;52.068;5.198;2022-07-06T01:54:31;4.05;;;1.88;;
16880;SDS011;8557;52.068;5.198;2022-07-06T01:56:57;3.28;;;1.50;;
16880;SDS011;8557;52.068;5.198;2022-07-06T01:59:24;1.90;;;1.65;;
16880;SDS011;8557;52.068;5.198;2022-07-06T02:01:51;2.33;;;1.65;;
16880;SDS011;8557;52.068;5.198;2022-07-06T02:04:18;3.47;;;1.50;;
16880;SDS011;8557;52.068;5.198;2022-07-06T02:06:45;5.90;;;1.58;;
16880;SDS011;8557;52.068;5.198;2022-07-06T02:09:11;2.25;;;1.40;;
16880;SDS011;8557;52.068;5.198;2022-07-06T02:11:40;3.05;;;1.40;;
16880;SDS011;8557;52.068;5.198;2022-07-06T02:14:06;2.28;;;1.25;;
16880;SDS011;8557;52.068;5.198;2022-07-06T02:16:33;4.53;;;1.50;;
16880;SDS011;8557;52.068;5.198;2022-07-06T02:19:00;2.25;;;1.35;;
16880;SDS011;8557;52.068;5.198;2022-07-06T02:21:27;6.63;;;1.60;;
16880;SDS011;8557;52.068;5.198;2022-07-06T02:23:54;2.30;;;1.50;;
16880;SDS011;8557;52.068;5.198;2022-07-06T02:26:20;5.53;;;1.65;;
16880;SDS011;8557;52.068;5.198;2022-07-06T02:28:48;3.20;;;1.55;;
16880;SDS011;8557;52.068;5.198;2022-07-06T02:31:15;4.07;;;1.40;;
16880;SDS011;8557;52.068;5.198;2022-07-06T02:33:42;4.32;;;1.70;;
16880;SDS011;8557;52.068;5.198;2022-07-06T02:36:09;3.05;;;1.60;;
16880;SDS011;8557;52.068;5.198;2022-07-06T02:38:36;1.85;;;1.65;;
16880;SDS011;8557;52.068;5.198;2022-07-06T02:41:03;2.65;;;1.52;;
16880;SDS011;8557;52.068;5.198;2022-07-06T02:43:29;3.40;;;1.90;;
16880;SDS011;8557;52.068;5.198;2022-07-06T02:45:57;3.67;;;1.70;;
16880;SDS011;8557;52.068;5.198;2022-07-06T02:48:24;2.28;;;1.60;;
16880;SDS011;8557;52.068;5.198;2022-07-06T02:50:51;3.75;;;1.77;;
16880;SDS011;8557;52.068;5.198;2022-07-06T02:53:18;3.30;;;1.60;;
16880;SDS011;8557;52.068;5.198;2022-07-06T02:55:45;6.10;;;1.70;;
16880;SDS011;8557;52.068;5.198;2022-07-06T02:58:11;5.03;;;1.73;;
16880;SDS011;8557;52.068;5.198;2022-07-06T03:00:38;3.75;;;1.73;;
16880;SDS011;8557;52.068;5.198;2022-07-06T03:03:06;5.13;;;1.73;;
16880;SDS011;8557;52.068;5.198;2022-07-06T03:05:34;3.80;;;1.83;;
16880;SDS011;8557;52.068;5.198;2022-07-06T03:08:01;3.03;;;1.67;;
16880;SDS011;8557;52.068;5.198;2022-07-06T03:10:27;3.25;;;1.67;;
16880;SDS011;8557;52.068;5.198;2022-07-06T03:12:54;4.07;;;1.60;;
16880;SDS011;8557;52.068;5.198;2022-07-06T03:15:21;2.28;;;1.42;;
16880;SDS011;8557;52.068;5.198;2022-07-06T03:17:48;3.30;;;1.40;;
16880;SDS011;8557;52.068;5.198;2022-07-06T03:20:16;2.30;;;1.50;;
16880;SDS011;8557;52.068;5.198;2022-07-06T03:22:43;3.05;;;1.45;;
16880;SDS011;8557;52.068;5.198;2022-07-06T03:25:10;2.05;;;1.50;;
16880;SDS011;8557;52.068;5.198;2022-07-06T03:27:37;1.58;;;1.33;;
16880;SDS011;8557;52.068;5.198;2022-07-06T03:30:04;2.22;;;1.40;;
16880;SDS011;8557;52.068;5.198;2022-07-06T03:32:31;4.10;;;1.48;;
16880;SDS011;8557;52.068;5.198;2022-07-06T03:34:58;3.47;;;1.50;;
16880;SDS011;8557;52.068;5.198;2022-07-06T03:37:26;5.32;;;1.48;;
16880;SDS011;8557;52.068;5.198;2022-07-06T03:39:53;3.00;;;1.50;;
16880;SDS011;8557;52.068;5.198;2022-07-06T03:42:19;6.38;;;1.60;;
16880;SDS011;8557;52.068;5.198;2022-07-06T03:44:46;2.75;;;1.45;;
16880;SDS011;8557;52.068;5.198;2022-07-06T03:47:13;4.53;;;1.55;;
16880;SDS011;8557;52.068;5.198;2022-07-06T03:49:39;3.17;;;1.40;;
16880;SDS011;8557;52.068;5.198;2022-07-06T03:52:06;3.17;;;1.42;;
16880;SDS011;8557;52.068;5.198;2022-07-06T03:54:34;2.65;;;1.25;;
16880;SDS011;8557;52.068;5.198;2022-07-06T03:57:01;3.63;;;1.60;;
16880;SDS011;8557;52.068;5.198;2022-07-06T03:59:28;1.77;;;1.33;;
16880;SDS011;8557;52.068;5.198;2022-07-06T04:01:56;2.88;;;1.58;;
16880;SDS011;8557;52.068;5.198;2022-07-06T04:04:22;4.75;;;1.70;;
16880;SDS011;8557;52.068;5.198;2022-07-06T04:06:49;2.45;;;1.27;;
16880;SDS011;8557;52.068;5.198;2022-07-06T04:09:16;2.72;;;1.48;;
16880;SDS011;8557;52.068;5.198;2022-07-06T04:11:44;2.45;;;1.52;;
16880;SDS011;8557;52.068;5.198;2022-07-06T04:14:11;3.30;;;1.75;;
16880;SDS011;8557;52.068;5.198;2022-07-06T04:16:37;4.85;;;1.50;;
16880;SDS011;8557;52.068;5.198;2022-07-06T04:19:04;3.00;;;1.48;;
16880;SDS011;8557;52.068;5.198;2022-07-06T04:21:31;3.75;;;1.60;;
16880;SDS011;8557;52.068;5.198;2022-07-06T04:23:58;1.95;;;1.30;;
16880;SDS011;8557;52.068;5.198;2022-07-06T04:26:25;3.80;;;1.30;;
16880;SDS011;8557;52.068;5.198;2022-07-06T04:28:53;3.03;;;2.03;;
16880;SDS011;8557;52.068;5.198;2022-07-06T04:31:19;3.83;;;1.48;;
16880;SDS011;8557;52.068;5.198;2022-07-06T04:33:46;5.25;;;1.42;;
16880;SDS011;8557;52.068;5.198;2022-07-06T04:36:13;4.18;;;1.52;;
16880;SDS011;8557;52.068;5.198;2022-07-06T04:38:40;3.65;;;1.70;;
16880;SDS011;8557;52.068;5.198;2022-07-06T04:41:07;3.03;;;1.27;;
16880;SDS011;8557;52.068;5.198;2022-07-06T04:43:33;3.30;;;1.88;;
16880;SDS011;8557;52.068;5.198;2022-07-06T04:46:01;4.20;;;1.50;;
16880;SDS011;8557;52.068;5.198;2022-07-06T04:48:28;4.72;;;1.33;;
16880;SDS011;8557;52.068;5.198;2022-07-06T04:50:57;2.83;;;1.25;;
16880;SDS011;8557;52.068;5.198;2022-07-06T04:53:24;5.13;;;1.60;;
16880;SDS011;8557;52.068;5.198;2022-07-06T04:55:51;1.95;;;1.40;;
16880;SDS011;8557;52.068;5.198;2022-07-06T04:58:18;3.05;;;1.38;;
16880;SDS011;8557;52.068;5.198;2022-07-06T05:00:45;4.43;;;1.65;;
16880;SDS011;8557;52.068;5.198;2022-07-06T05:03:13;4.30;;;1.63;;
16880;SDS011;8557;52.068;5.198;2022-07-06T05:05:39;2.78;;;1.52;;
16880;SDS011;8557;52.068;5.198;2022-07-06T05:08:06;2.67;;;1.40;;
16880;SDS011;8557;52.068;5.198;2022-07-06T05:10:33;1.95;;;1.38;;
16880;SDS011;8557;52.068;5.198;2022-07-06T05:13:00;1.75;;;1.40;;
16880;SDS011;8557;52.068;5.198;2022-07-06T05:15:26;3.58;;;1.40;;
16880;SDS011;8557;52.068;5.198;2022-07-06T05:17:53;3.00;;;1.35;;
16880;SDS011;8557;52.068;5.198;2022-07-06T05:20:21;3.72;;;1.50;;
16880;SDS011;8557;52.068;5.198;2022-07-06T05:22:48;3.08;;;1.20;;
16880;SDS011;8557;52.068;5.198;2022-07-06T05:25:15;3.40;;;1.30;;
16880;SDS011;8557;52.068;5.198;2022-07-06T05:27:41;2.47;;;1.48;;
16880;SDS011;8557;52.068;5.198;2022-07-06T05:30:09;1.77;;;1.35;;
16880;SDS011;8557;52.068;5.198;2022-07-06T05:32:36;3.20;;;1.30;;
16880;SDS011;8557;52.068;5.198;2022-07-06T05:35:03;1.73;;;1.42;;
16880;SDS011;8557;52.068;5.198;2022-07-06T05:37:32;2.72;;;1.42;;
16880;SDS011;8557;52.068;5.198;2022-07-06T05:39:59;3.15;;;1.00;;
16880;SDS011;8557;52.068;5.198;2022-07-06T05:42:25;5.22;;;1.38;;
16880;SDS011;8557;52.068;5.198;2022-07-06T05:44:54;2.10;;;1.10;;
16880;SDS011;8557;52.068;5.198;2022-07-06T05:47:21;3.78;;;1.30;;
16880;SDS011;8557;52.068;5.198;2022-07-06T05:50:06;2.90;;;1.20;;
16880;SDS011;8557;52.068;5.198;2022-07-06T05:52:40;4.07;;;1.30;;
16880;SDS011;8557;52.068;5.198;2022-07-06T05:55:08;2.50;;;1.20;;
16880;SDS011;8557;52.068;5.198;2022-07-06T05:57:35;1.88;;;1.20;;
16880;SDS011;8557;52.068;5.198;2022-07-06T06:00:02;1.75;;;1.23;;
16880;SDS011;8557;52.068;5.198;2022-07-06T06:02:36;4.63;;;1.27;;
16880;SDS011;8557;52.068;5.198;2022-07-06T06:05:03;4.25;;;1.40;;
16880;SDS011;8557;52.068;5.198;2022-07-06T06:07:32;4.15;;;1.23;;
16880;SDS011;8557;52.068;5.198;2022-07-06T06:10:01;3.38;;;1.77;;
16880;SDS011;8557;52.068;5.198;2022-07-06T06:12:29;4.40;;;1.27;;
16880;SDS011;8557;52.068;5.198;2022-07-06T06:14:56;4.45;;;1.45;;
16880;SDS011;8557;52.068;5.198;2022-07-06T06:17:22;3.25;;;1.25;;
16880;SDS011;8557;52.068;5.198;2022-07-06T06:19:49;2.28;;;1.20;;
16880;SDS011;8557;52.068;5.198;2022-07-06T06:22:16;6.68;;;1.58;;
16880;SDS011;8557;52.068;5.198;2022-07-06T06:24:43;2.10;;;0.90;;
16880;SDS011;8557;52.068;5.198;2022-07-06T06:27:11;5.22;;;1.10;;
16880;SDS011;8557;52.068;5.198;2022-07-06T06:29:38;2.85;;;0.90;;
16880;SDS011;8557;52.068;5.198;2022-07-06T06:32:06;8.20;;;1.13;;
16880;SDS011;8557;52.068;5.198;2022-07-06T06:34:33;3.38;;;0.90;;
16880;SDS011;8557;52.068;5.198;2022-07-06T06:37:00;1.15;;;0.80;;
16880;SDS011;8557;52.068;5.198;2022-07-06T06:39:26;2.60;;;0.90;;
16880;SDS011;8557;52.068;5.198;2022-07-06T06:41:53;2.45;;;1.00;;
16880;SDS011;8557;52.068;5.198;2022-07-06T06:44:22;3.05;;;1.10;;
16880;SDS011;8557;52.068;5.198;2022-07-06T06:46:49;4.65;;;1.05;;
16880;SDS011;8557;52.068;5.198;2022-07-06T06:49:17;5.00;;;1.00;;
16880;SDS011;8557;52.068;5.198;2022-07-06T06:51:44;4.60;;;1.08;;
16880;SDS011;8557;52.068;5.198;2022-07-06T06:54:11;4.13;;;1.00;;
16880;SDS011;8557;52.068;5.198;2022-07-06T06:56:37;4.50;;;1.02;;
16880;SDS011;8557;52.068;5.198;2022-07-06T06:59:04;2.47;;;0.80;;
16880;SDS011;8557;52.068;5.198;2022-07-06T07:01:33;2.70;;;0.95;;
16880;SDS011;8557;52.068;5.198;2022-07-06T07:03:59;3.42;;;1.10;;
16880;SDS011;8557;52.068;5.198;2022-07-06T07:06:26;2.38;;;0.80;;
16880;SDS011;8557;52.068;5.198;2022-07-06T07:08:53;2.83;;;0.70;;
16880;SDS011;8557;52.068;5.198;2022-07-06T07:11:21;4.35;;;1.00;;
16880;SDS011;8557;52.068;5.198;2022-07-06T07:13:47;2.20;;;1.00;;
16880;SDS011;8557;52.068;5.198;2022-07-06T07:16:14;4.50;;;0.90;;
16880;SDS011;8557;52.068;5.198;2022-07-06T07:18:42;2.40;;;1.10;;
16880;SDS011;8557;52.068;5.198;2022-07-06T07:21:09;3.50;;;0.90;;
16880;SDS011;8557;52.068;5.198;2022-07-06T07:23:36;4.05;;;0.90;;
16880;SDS011;8557;52.068;5.198;2022-07-06T07:26:03;5.18;;;1.23;;
16880;SDS011;8557;52.068;5.198;2022-07-06T07:28:30;2.50;;;0.93;;
16880;SDS011;8557;52.068;5.198;2022-07-06T07:30:57;4.05;;;0.70;;
16880;SDS011;8557;52.068;5.198;2022-07-06T07:33:23;3.00;;;0.70;;
16880;SDS011;8557;52.068;5.198;2022-07-06T07:35:51;3.63;;;0.70;;
16880;SDS011;8557;52.068;5.198;2022-07-06T07:38:18;1.67;;;0.90;;
16880;SDS011;8557;52.068;5.198;2022-07-06T07:40:45;3.15;;;0.90;;
16880;SDS011;8557;52.068;5.198;2022-07-06T07:43:12;3.50;;;0.90;;
16880;SDS011;8557;52.068;5.198;2022-07-06T07:45:39;2.92;;;0.77;;
16880;SDS011;8557;52.068;5.198;2022-07-06T07:48:06;5.15;;;0.80;;
16880;SDS011;8557;52.068;5.198;2022-07-06T07:50:32;3.95;;;0.60;;
16880;SDS011;8557;52.068;5.198;2022-07-06T07:53:01;2.63;;;0.70;;
16880;SDS011;8557;52.068;5.198;2022-07-06T07:55:28;5.57;;;0.90;;
16880;SDS011;8557;52.068;5.198;2022-07-06T07:57:55;4.88;;;1.00;;
16880;SDS011;8557;52.068;5.198;2022-07-06T08:00:21;1.55;;;0.60;;
16880;SDS011;8557;52.068;5.198;2022-07-06T08:02:49;3.05;;;0.95;;
16880;SDS011;8557;52.068;5.198;2022-07-06T08:05:16;4.25;;;0.88;;
16880;SDS011;8557;52.068;5.198;2022-07-06T08:07:46;1.42;;;0.75;;
16880;SDS011;8557;52.068;5.198;2022-07-06T08:10:14;2.67;;;0.80;;
16880;SDS011;8557;52.068;5.198;2022-07-06T08:12:41;2.55;;;0.80;;
16880;SDS011;8557;52.068;5.198;2022-07-06T08:15:08;2.42;;;0.90;;
16880;SDS011;8557;52.068;5.198;2022-07-06T08:17:35;3.90;;;0.95;;
16880;SDS011;8557;52.068;5.198;2022-07-06T08:20:04;2.97;;;0.70;;
16880;SDS011;8557;52.068;5.198;2022-07-06T08:22:32;2.50;;;0.60;;
16880;SDS011;8557;52.068;5.198;2022-07-06T08:25:00;3.92;;;0.70;;
16880;SDS011;8557;52.068;5.198;2022-07-06T08:27:29;4.20;;;0.80;;
16880;SDS011;8557;52.068;5.198;2022-07-06T08:29:55;1.30;;;0.50;;
16880;SDS011;8557;52.068;5.198;2022-07-06T08:32:22;3.40;;;0.80;;
16880;SDS011;8557;52.068;5.198;2022-07-06T08:34:49;0.90;;;0.63;;
16880;SDS011;8557;52.068;5.198;2022-07-06T08:37:15;2.97;;;0.70;;
16880;SDS011;8557;52.068;5.198;2022-07-06T08:39:42;1.80;;;0.60;;
16880;SDS011;8557;52.068;5.198;2022-07-06T08:42:09;1.05;;;0.35;;
16880;SDS011;8557;52.068;5.198;2022-07-06T08:44:37;1.55;;;0.50;;
16880;SDS011;8557;52.068;5.198;2022-07-06T08:47:05;1.17;;;0.65;;
16880;SDS011;8557;52.068;5.198;2022-07-06T08:49:32;0.75;;;0.40;;
16880;SDS011;8557;52.068;5.198;2022-07-06T08:52:00;1.15;;;0.50;;
16880;SDS011;8557;52.068;5.198;2022-07-06T08:54:28;0.95;;;0.40;;
16880;SDS011;8557;52.068;5.198;2022-07-06T08:56:55;1.38;;;0.50;;
16880;SDS011;8557;52.068;5.198;2022-07-06T08:59:24;2.20;;;0.60;;
16880;SDS011;8557;52.068;5.198;2022-07-06T09:01:54;1.88;;;0.47;;
16880;SDS011;8557;52.068;5.198;2022-07-06T09:04:21;1.42;;;0.60;;
16880;SDS011;8557;52.068;5.198;2022-07-06T09:06:48;1.60;;;0.50;;
16880;SDS011;8557;52.068;5.198;2022-07-06T09:09:17;2.38;;;0.50;;
16880;SDS011;8557;52.068;5.198;2022-07-06T09:11:46;2.35;;;0.50;;
16880;SDS011;8557;52.068;5.198;2022-07-06T09:14:13;2.40;;;0.70;;
16880;SDS011;8557;52.068;5.198;2022-07-06T09:16:41;2.25;;;0.57;;
16880;SDS011;8557;52.068;5.198;2022-07-06T09:19:12;1.23;;;0.50;;
16880;SDS011;8557;52.068;5.198;2022-07-06T09:21:40;2.03;;;0.60;;
16880;SDS011;8557;52.068;5.198;2022-07-06T09:24:08;1.02;;;0.50;;
16880;SDS011;8557;52.068;5.198;2022-07-06T09:26:35;1.80;;;0.55;;
16880;SDS011;8557;52.068;5.198;2022-07-06T09:29:03;3.40;;;0.50;;
16880;SDS011;8557;52.068;5.198;2022-07-06T09:31:30;0.70;;;0.40;;
16880;SDS011;8557;52.068;5.198;2022-07-06T09:33:58;2.80;;;0.60;;
16880;SDS011;8557;52.068;5.198;2022-07-06T09:36:37;0.95;;;0.40;;
16880;SDS011;8557;52.068;5.198;2022-07-06T09:39:15;2.58;;;0.85;;
16880;SDS011;8557;52.068;5.198;2022-07-06T09:41:49;1.90;;;0.60;;
16880;SDS011;8557;52.068;5.198;2022-07-06T09:44:18;1.67;;;0.55;;
16880;SDS011;8557;52.068;5.198;2022-07-06T09:46:49;2.38;;;0.50;;
16880;SDS011;8557;52.068;5.198;2022-07-06T09:49:17;2.63;;;0.47;;
16880;SDS011;8557;52.068;5.198;2022-07-06T09:51:46;1.13;;;0.60;;
16880;SDS011;8557;52.068;5.198;2022-07-06T09:54:14;0.55;;;0.52;;
16880;SDS011;8557;52.068;5.198;2022-07-06T09:56:44;2.25;;;0.70;;
16880;SDS011;8557;52.068;5.198;2022-07-06T09:59:16;2.13;;;0.40;;
16880;SDS011;8557;52.068;5.198;2022-07-06T10:01:44;1.92;;;0.45;;
16880;SDS011;8557;52.068;5.198;2022-07-06T10:04:12;1.67;;;0.40;;
16880;SDS011;8557;52.068;5.198;2022-07-06T10:06:40;1.85;;;0.50;;
16880;SDS011;8557;52.068;5.198;2022-07-06T10:09:09;3.92;;;0.50;;
16880;SDS011;8557;52.068;5.198;2022-07-06T10:11:38;0.60;;;0.50;;
16880;SDS011;8557;52.068;5.198;2022-07-06T10:14:06;2.65;;;0.50;;
16880;SDS011;8557;52.068;5.198;2022-07-06T10:16:35;1.67;;;0.57;;
16880;SDS011;8557;52.068;5.198;2022-07-06T10:19:14;1.05;;;0.45;;
16880;SDS011;8557;52.068;5.198;2022-07-06T10:21:43;1.33;;;0.50;;
16880;SDS011;8557;52.068;5.198;2022-07-06T10:24:12;1.73;;;0.50;;
16880;SDS011;8557;52.068;5.198;2022-07-06T10:26:40;1.38;;;0.50;;
16880;SDS011;8557;52.068;5.198;2022-07-06T10:29:07;2.45;;;0.40;;
16880;SDS011;8557;52.068;5.198;2022-07-06T10:31:35;1.58;;;0.50;;
16880;SDS011;8557;52.068;5.198;2022-07-06T10:34:05;1.85;;;0.55;;
16880;SDS011;8557;52.068;5.198;2022-07-06T10:36:36;1.17;;;0.40;;
16880;SDS011;8557;52.068;5.198;2022-07-06T10:39:03;1.10;;;0.40;;
16880;SDS011;8557;52.068;5.198;2022-07-06T10:41:52;2.47;;;0.65;;
16880;SDS011;8557;52.068;5.198;2022-07-06T10:44:18;1.48;;;0.55;;
16880;SDS011;8557;52.068;5.198;2022-07-06T10:46:51;2.75;;;0.50;;
16880;SDS011;8557;52.068;5.198;2022-07-06T10:49:19;1.90;;;0.50;;
16880;SDS011;8557;52.068;5.198;2022-07-06T10:51:46;1.58;;;0.32;;
16880;SDS011;8557;52.068;5.198;2022-07-06T10:54:14;0.50;;;0.40;;
16880;SDS011;8557;52.068;5.198;2022-07-06T10:56:42;1.90;;;0.43;;
16880;SDS011;8557;52.068;5.198;2022-07-06T10:59:12;1.48;;;0.45;;
16880;SDS011;8557;52.068;5.198;2022-07-06T11:01:39;1.95;;;0.50;;
16880;SDS011;8557;52.068;5.198;2022-07-06T11:04:08;1.30;;;0.55;;
16880;SDS011;8557;52.068;5.198;2022-07-06T11:06:36;2.78;;;0.43;;
16880;SDS011;8557;52.068;5.198;2022-07-06T11:09:04;1.98;;;0.60;;
16880;SDS011;8557;52.068;5.198;2022-07-06T11:11:39;0.60;;;0.40;;
16880;SDS011;8557;52.068;5.198;2022-07-06T11:14:13;2.05;;;0.50;;
16880;SDS011;8557;52.068;5.198;2022-07-06T11:19:27;1.00;;;0.60;;
16880;SDS011;8557;52.068;5.198;2022-07-06T11:21:55;2.05;;;0.50;;
16880;SDS011;8557;52.068;5.198;2022-07-06T11:24:25;0.70;;;0.45;;
16880;SDS011;8557;52.068;5.198;2022-07-06T11:26:53;1.48;;;0.40;;
16880;SDS011;8557;52.068;5.198;2022-07-06T11:29:24;1.85;;;0.47;;
16880;SDS011;8557;52.068;5.198;2022-07-06T11:31:54;2.85;;;0.50;;
16880;SDS011;8557;52.068;5.198;2022-07-06T11:34:22;1.35;;;0.55;;
16880;SDS011;8557;52.068;5.198;2022-07-06T11:36:54;2.05;;;0.47;;
16880;SDS011;8557;52.068;5.198;2022-07-06T11:39:21;2.25;;;0.70;;
16880;SDS011;8557;52.068;5.198;2022-07-06T11:41:48;0.93;;;0.45;;
16880;SDS011;8557;52.068;5.198;2022-07-06T11:44:15;2.00;;;0.60;;
16880;SDS011;8557;52.068;5.198;2022-07-06T11:46:43;4.43;;;0.60;;
16880;SDS011;8557;52.068;5.198;2022-07-06T11:49:10;2.35;;;0.57;;
16880;SDS011;8557;52.068;5.198;2022-07-06T11:51:37;1.60;;;0.68;;
16880;SDS011;8557;52.068;5.198;2022-07-06T11:54:07;1.45;;;0.50;;
16880;SDS011;8557;52.068;5.198;2022-07-06T11:56:35;1.23;;;0.40;;
16880;SDS011;8557;52.068;5.198;2022-07-06T11:59:02;0.75;;;0.50;;
16880;SDS011;8557;52.068;5.198;2022-07-06T12:01:29;0.98;;;0.60;;
16880;SDS011;8557;52.068;5.198;2022-07-06T12:03:58;2.38;;;0.65;;
16880;SDS011;8557;52.068;5.198;2022-07-06T12:06:27;1.42;;;0.50;;
16880;SDS011;8557;52.068;5.198;2022-07-06T12:08:55;1.40;;;0.50;;
16880;SDS011;8557;52.068;5.198;2022-07-06T12:11:23;1.92;;;0.60;;
16880;SDS011;8557;52.068;5.198;2022-07-06T12:13:52;1.75;;;0.70;;
16880;SDS011;8557;52.068;5.198;2022-07-06T12:16:20;1.45;;;0.70;;
16880;SDS011;8557;52.068;5.198;2022-07-06T12:18:48;2.35;;;0.60;;
16880;SDS011;8557;52.068;5.198;2022-07-06T12:21:17;1.48;;;0.60;;
16880;SDS011;8557;52.068;5.198;2022-07-06T12:23:48;3.08;;;0.90;;
16880;SDS011;8557;52.068;5.198;2022-07-06T12:26:17;2.42;;;0.73;;
16880;SDS011;8557;52.068;5.198;2022-07-06T12:28:45;1.60;;;0.52;;
16880;SDS011;8557;52.068;5.198;2022-07-06T12:33:57;1.65;;;0.63;;
16880;SDS011;8557;52.068;5.198;2022-07-06T12:36:25;1.75;;;0.80;;
16880;SDS011;8557;52.068;5.198;2022-07-06T12:38:53;1.60;;;1.00;;
16880;SDS011;8557;52.068;5.198;2022-07-06T12:41:26;2.85;;;0.50;;
16880;SDS011;8557;52.068;5.198;2022-07-06T12:44:02;1.70;;;0.68;;
16880;SDS011;8557;52.068;5.198;2022-07-06T12:46:31;2.15;;;0.60;;
16880;SDS011;8557;52.068;5.198;2022-07-06T12:48:59;1.77;;;0.70;;
16880;SDS011;8557;52.068;5.198;2022-07-06T12:51:28;2.20;;;0.77;;
16880;SDS011;8557;52.068;5.198;2022-07-06T12:54:13;3.60;;;0.70;;
16880;SDS011;8557;52.068;5.198;2022-07-06T12:56:57;3.15;;;0.70;;
16880;SDS011;8557;52.068;5.198;2022-07-06T12:59:25;1.75;;;0.75;;
16880;SDS011;8557;52.068;5.198;2022-07-06T13:01:52;2.72;;;0.82;;
16880;SDS011;8557;52.068;5.198;2022-07-06T13:04:21;1.65;;;0.77;;
16880;SDS011;8557;52.068;5.198;2022-07-06T13:06:50;1.50;;;0.60;;
16880;SDS011;8557;52.068;5.198;2022-07-06T13:09:17;2.50;;;0.70;;
16880;SDS011;8557;52.068;5.198;2022-07-06T13:11:44;1.58;;;0.70;;
16880;SDS011;8557;52.068;5.198;2022-07-06T13:14:12;1.15;;;0.60;;
16880;SDS011;8557;52.068;5.198;2022-07-06T13:16:38;2.53;;;0.90;;
16880;SDS011;8557;52.068;5.198;2022-07-06T13:19:05;2.35;;;0.68;;
16880;SDS011;8557;52.068;5.198;2022-07-06T13:21:32;2.38;;;0.75;;
16880;SDS011;8557;52.068;5.198;2022-07-06T13:24:00;1.75;;;0.80;;
16880;SDS011;8557;52.068;5.198;2022-07-06T13:26:27;3.05;;;0.80;;
16880;SDS011;8557;52.068;5.198;2022-07-06T13:28:54;1.08;;;0.60;;
16880;SDS011;8557;52.068;5.198;2022-07-06T13:31:22;2.10;;;0.75;;
16880;SDS011;8557;52.068;5.198;2022-07-06T13:33:48;2.40;;;0.90;;
16880;SDS011;8557;52.068;5.198;2022-07-06T13:36:16;1.60;;;0.80;;
16880;SDS011;8557;52.068;5.198;2022-07-06T13:38:42;1.83;;;0.75;;
16880;SDS011;8557;52.068;5.198;2022-07-06T13:41:11;1.40;;;0.82;;
16880;SDS011;8557;52.068;5.198;2022-07-06T13:43:38;4.78;;;0.80;;
16880;SDS011;8557;52.068;5.198;2022-07-06T13:46:05;2.58;;;1.00;;
16880;SDS011;8557;52.068;5.198;2022-07-06T13:48:33;2.38;;;0.82;;
16880;SDS011;8557;52.068;5.198;2022-07-06T13:51:00;2.90;;;0.90;;
16880;SDS011;8557;52.068;5.198;2022-07-06T13:53:27;3.67;;;1.00;;
16880;SDS011;8557;52.068;5.198;2022-07-06T13:55:54;2.50;;;1.00;;
16880;SDS011;8557;52.068;5.198;2022-07-06T13:58:22;3.28;;;1.02;;
16880;SDS011;8557;52.068;5.198;2022-07-06T14:00:49;1.58;;;0.90;;
16880;SDS011;8557;52.068;5.198;2022-07-06T14:03:15;2.35;;;0.88;;
16880;SDS011;8557;52.068;5.198;2022-07-06T14:05:42;1.70;;;1.10;;
16880;SDS011;8557;52.068;5.198;2022-07-06T14:08:09;3.83;;;1.20;;
16880;SDS011;8557;52.068;5.198;2022-07-06T14:10:37;2.72;;;0.95;;
16880;SDS011;8557;52.068;5.198;2022-07-06T14:13:04;2.53;;;0.90;;
16880;SDS011;8557;52.068;5.198;2022-07-06T14:15:32;3.47;;;1.20;;
16880;SDS011;8557;52.068;5.198;2022-07-06T14:17:59;4.03;;;1.13;;
16880;SDS011;8557;52.068;5.198;2022-07-06T14:20:25;5.38;;;1.33;;
16880;SDS011;8557;52.068;5.198;2022-07-06T14:22:52;3.28;;;1.10;;
16880;SDS011;8557;52.068;5.198;2022-07-06T14:25:19;3.85;;;1.38;;
16880;SDS011;8557;52.068;5.198;2022-07-06T14:27:46;1.88;;;1.33;;
16880;SDS011;8557;52.068;5.198;2022-07-06T14:30:12;5.55;;;1.33;;
16880;SDS011;8557;52.068;5.198;2022-07-06T14:32:41;3.22;;;1.05;;
16880;SDS011;8557;52.068;5.198;2022-07-06T14:35:09;2.55;;;1.05;;
16880;SDS011;8557;52.068;5.198;2022-07-06T14:37:35;4.05;;;1.58;;
16880;SDS011;8557;52.068;5.198;2022-07-06T14:40:02;2.67;;;0.80;;
16880;SDS011;8557;52.068;5.198;2022-07-06T14:42:30;2.05;;;1.00;;
16880;SDS011;8557;52.068;5.198;2022-07-06T14:44:56;3.92;;;1.13;;
16880;SDS011;8557;52.068;5.198;2022-07-06T14:47:23;5.93;;;1.25;;
16880;SDS011;8557;52.068;5.198;2022-07-06T14:49:51;3.85;;;1.20;;
16880;SDS011;8557;52.068;5.198;2022-07-06T14:52:18;3.40;;;1.45;;
16880;SDS011;8557;52.068;5.198;2022-07-06T14:54:45;2.33;;;1.00;;
16880;SDS011;8557;52.068;5.198;2022-07-06T14:57:11;2.47;;;1.02;;
16880;SDS011;8557;52.068;5.198;2022-07-06T14:59:38;2.72;;;1.20;;
16880;SDS011;8557;52.068;5.198;2022-07-06T15:02:05;3.40;;;1.20;;
16880;SDS011;8557;52.068;5.198;2022-07-06T15:04:31;4.53;;;1.40;;
16880;SDS011;8557;52.068;5.198;2022-07-06T15:07:00;3.40;;;1.30;;
16880;SDS011;8557;52.068;5.198;2022-07-06T15:09:26;3.78;;;1.10;;